sensor_id;sensor_type;location;lat;lon;timestamp;temperature;humidity
20680;DHT22;10499;47.494;7.608;2022-12-18T00:01:57;-3.60;99.90
20680;DHT22;10499;47.494;7.608;2022-12-18T00:04:25;-3.70;99.90
20680;DHT22;10499;47.494;7.608;2022-12-18T00:06:51;-3.70;99.90
20680;DHT22;10499;47.494;7.608;2022-12-18T00:09:17;-3.70;99.90
20680;DHT22;10499;47.494;7.608;2022-12-18T00:11:43;-3.70;99.90
20680;DHT22;10499;47.494;7.608;2022-12-18T00:14:10;-3.80;99.90
20680;DHT22;10499;47.494;7.608;2022-12-18T00:16:36;-3.90;99.90
20680;DHT22;10499;47.494;7.608;2022-12-18T00:19:03;-3.90;99.90
20680;DHT22;10499;47.494;7.608;2022-12-18T00:21:30;-4.00;99.90
20680;DHT22;10499;47.494;7.608;2022-12-18T00:23:56;-4.00;99.90
20680;DHT22;10499;47.494;7.608;2022-12-18T00:26:28;-4.10;99.90
20680;DHT22;10499;47.494;7.608;2022-12-18T00:31:23;-4.10;99.90
20680;DHT22;10499;47.494;7.608;2022-12-18T00:33:49;-4.20;99.90
20680;DHT22;10499;47.494;7.608;2022-12-18T00:36:18;-4.20;99.90
20680;DHT22;10499;47.494;7.608;2022-12-18T00:38:44;-4.20;99.90
20680;DHT22;10499;47.494;7.608;2022-12-18T00:41:11;-4.20;99.90
20680;DHT22;10499;47.494;7.608;2022-12-18T00:43:37;-4.20;99.90
20680;DHT22;10499;47.494;7.608;2022-12-18T00:46:03;-4.20;99.90
20680;DHT22;10499;47.494;7.608;2022-12-18T00:48:29;-4.30;99.90
20680;DHT22;10499;47.494;7.608;2022-12-18T00:50:55;-4.20;99.90
20680;DHT22;10499;47.494;7.608;2022-12-18T00:53:21;-4.30;99.90
20680;DHT22;10499;47.494;7.608;2022-12-18T00:55:47;-4.30;99.90
20680;DHT22;10499;47.494;7.608;2022-12-18T00:58:14;-4.30;99.90
20680;DHT22;10499;47.494;7.608;2022-12-18T01:00:41;-4.20;99.90
20680;DHT22;10499;47.494;7.608;2022-12-18T01:03:07;-4.20;99.90
20680;DHT22;10499;47.494;7.608;2022-12-18T01:05:33;-4.30;99.90
20680;DHT22;10499;47.494;7.608;2022-12-18T01:07:59;-4.30;99.90
20680;DHT22;10499;47.494;7.608;2022-12-18T01:10:25;-4.30;99.90
20680;DHT22;10499;47.494;7.608;2022-12-18T01:12:51;-4.30;99.90
20680;DHT22;10499;47.494;7.608;2022-12-18T01:15:17;-4.30;99.90
20680;DHT22;10499;47.494;7.608;2022-12-18T01:17:43;-4.30;99.90
20680;DHT22;10499;47.494;7.608;2022-12-18T01:20:10;-4.30;99.90
20680;DHT22;10499;47.494;7.608;2022-12-18T01:22:36;-4.30;99.90
20680;DHT22;10499;47.494;7.608;2022-12-18T01:25:03;-4.30;99.90
20680;DHT22;10499;47.494;7.608;2022-12-18T01:27:29;-4.30;99.90
20680;DHT22;10499;47.494;7.608;2022-12-18T01:29:55;-4.30;99.90
20680;DHT22;10499;47.494;7.608;2022-12-18T01:32:21;-4.20;99.90
20680;DHT22;10499;47.494;7.608;2022-12-18T01:34:47;-4.20;99.90
20680;DHT22;10499;47.494;7.608;2022-12-18T01:37:13;-4.10;99.90
20680;DHT22;10499;47.494;7.608;2022-12-18T01:39:39;-4.10;99.90
20680;DHT22;10499;47.494;7.608;2022-12-18T01:42:11;-4.10;99.90
20680;DHT22;10499;47.494;7.608;2022-12-18T01:47:28;-4.10;99.90
20680;DHT22;10499;47.494;7.608;2022-12-18T01:49:57;-4.10;99.90
20680;DHT22;10499;47.494;7.608;2022-12-18T01:52:26;-4.10;99.90
20680;DHT22;10499;47.494;7.608;2022-12-18T01:54:53;-4.00;99.90
20680;DHT22;10499;47.494;7.608;2022-12-18T01:57:19;-4.00;99.90
20680;DHT22;10499;47.494;7.608;2022-12-18T01:59:47;-4.20;99.90
20680;DHT22;10499;47.494;7.608;2022-12-18T02:02:16;-4.10;99.90
20680;DHT22;10499;47.494;7.608;2022-12-18T02:04:42;-4.10;99.90
20680;DHT22;10499;47.494;7.608;2022-12-18T02:09:48;-4.10;99.90
20680;DHT22;10499;47.494;7.608;2022-12-18T02:12:21;-4.00;99.90
20680;DHT22;10499;47.494;7.608;2022-12-18T02:17:22;-4.00;99.90
20680;DHT22;10499;47.494;7.608;2022-12-18T02:20:05;-4.00;99.90
20680;DHT22;10499;47.494;7.608;2022-12-18T02:28:04;-3.90;99.90
20680;DHT22;10499;47.494;7.608;2022-12-18T02:30:33;-4.00;99.90
20680;DHT22;10499;47.494;7.608;2022-12-18T02:33:01;-4.00;99.90
20680;DHT22;10499;47.494;7.608;2022-12-18T02:35:30;-4.10;99.90
20680;DHT22;10499;47.494;7.608;2022-12-18T02:37:56;-4.20;99.90
20680;DHT22;10499;47.494;7.608;2022-12-18T02:40:24;-4.30;99.90
20680;DHT22;10499;47.494;7.608;2022-12-18T02:42:51;-4.30;99.90
20680;DHT22;10499;47.494;7.608;2022-12-18T02:45:17;-4.50;99.90
20680;DHT22;10499;47.494;7.608;2022-12-18T02:47:47;-4.60;99.90
20680;DHT22;10499;47.494;7.608;2022-12-18T02:50:26;-4.80;99.90
20680;DHT22;10499;47.494;7.608;2022-12-18T02:53:17;-4.90;99.90
20680;DHT22;10499;47.494;7.608;2022-12-18T02:58:44;-5.00;99.90
20680;DHT22;10499;47.494;7.608;2022-12-18T03:01:21;-5.00;99.90
20680;DHT22;10499;47.494;7.608;2022-12-18T03:03:51;-5.00;99.90
20680;DHT22;10499;47.494;7.608;2022-12-18T03:06:59;-5.10;99.90
20680;DHT22;10499;47.494;7.608;2022-12-18T03:09:36;-5.10;99.90
20680;DHT22;10499;47.494;7.608;2022-12-18T03:12:24;-5.20;99.90
20680;DHT22;10499;47.494;7.608;2022-12-18T03:17:31;-5.20;99.90
20680;DHT22;10499;47.494;7.608;2022-12-18T03:20:02;-5.30;99.90
20680;DHT22;10499;47.494;7.608;2022-12-18T03:22:30;-5.20;99.90
20680;DHT22;10499;47.494;7.608;2022-12-18T03:25:00;-5.30;99.90
20680;DHT22;10499;47.494;7.608;2022-12-18T03:27:28;-5.30;99.90
20680;DHT22;10499;47.494;7.608;2022-12-18T03:30:08;-5.30;99.90
20680;DHT22;10499;47.494;7.608;2022-12-18T03:32:52;-5.30;99.90
20680;DHT22;10499;47.494;7.608;2022-12-18T03:35:27;-5.30;99.90
20680;DHT22;10499;47.494;7.608;2022-12-18T03:37:54;-5.30;99.90
20680;DHT22;10499;47.494;7.608;2022-12-18T03:40:25;-5.40;99.90
20680;DHT22;10499;47.494;7.608;2022-12-18T03:42:57;-5.40;99.90
20680;DHT22;10499;47.494;7.608;2022-12-18T03:45:36;-5.40;99.90
20680;DHT22;10499;47.494;7.608;2022-12-18T03:53:28;-5.40;99.90
20680;DHT22;10499;47.494;7.608;2022-12-18T03:55:59;-5.40;99.90
20680;DHT22;10499;47.494;7.608;2022-12-18T03:58:26;-5.40;99.90
20680;DHT22;10499;47.494;7.608;2022-12-18T04:00:56;-5.40;99.90
20680;DHT22;10499;47.494;7.608;2022-12-18T04:03:26;-5.40;99.90
20680;DHT22;10499;47.494;7.608;2022-12-18T04:05:54;-5.40;99.90
20680;DHT22;10499;47.494;7.608;2022-12-18T04:08:21;-5.50;99.90
20680;DHT22;10499;47.494;7.608;2022-12-18T04:10:47;-5.50;99.90
20680;DHT22;10499;47.494;7.608;2022-12-18T04:13:22;-5.50;99.90
20680;DHT22;10499;47.494;7.608;2022-12-18T04:15:47;-5.60;99.90
20680;DHT22;10499;47.494;7.608;2022-12-18T04:18:13;-5.40;99.90
20680;DHT22;10499;47.494;7.608;2022-12-18T04:20:39;-5.50;99.90
20680;DHT22;10499;47.494;7.608;2022-12-18T04:23:04;-5.60;99.90
20680;DHT22;10499;47.494;7.608;2022-12-18T04:25:30;-5.60;99.90
20680;DHT22;10499;47.494;7.608;2022-12-18T04:27:55;-5.60;99.90
20680;DHT22;10499;47.494;7.608;2022-12-18T04:30:21;-5.60;99.90
20680;DHT22;10499;47.494;7.608;2022-12-18T04:32:47;-5.60;99.90
20680;DHT22;10499;47.494;7.608;2022-12-18T04:35:12;-5.60;99.90
20680;DHT22;10499;47.494;7.608;2022-12-18T04:37:38;-5.60;99.90
20680;DHT22;10499;47.494;7.608;2022-12-18T04:40:04;-5.60;99.90
20680;DHT22;10499;47.494;7.608;2022-12-18T04:42:30;-5.60;99.90
20680;DHT22;10499;47.494;7.608;2022-12-18T04:44:55;-5.70;99.90
20680;DHT22;10499;47.494;7.608;2022-12-18T04:47:21;-5.70;99.90
20680;DHT22;10499;47.494;7.608;2022-12-18T04:49:46;-5.80;99.90
20680;DHT22;10499;47.494;7.608;2022-12-18T04:52:12;-5.80;99.90
20680;DHT22;10499;47.494;7.608;2022-12-18T04:54:38;-5.80;99.90
20680;DHT22;10499;47.494;7.608;2022-12-18T04:57:03;-5.80;99.90
20680;DHT22;10499;47.494;7.608;2022-12-18T04:59:29;-5.80;99.90
20680;DHT22;10499;47.494;7.608;2022-12-18T05:01:54;-5.80;99.90
20680;DHT22;10499;47.494;7.608;2022-12-18T05:04:20;-5.90;99.90
20680;DHT22;10499;47.494;7.608;2022-12-18T05:06:46;-5.90;99.90
20680;DHT22;10499;47.494;7.608;2022-12-18T05:09:11;-5.90;99.90
20680;DHT22;10499;47.494;7.608;2022-12-18T05:11:37;-5.90;99.90
20680;DHT22;10499;47.494;7.608;2022-12-18T05:14:03;-5.90;99.90
20680;DHT22;10499;47.494;7.608;2022-12-18T05:16:28;-5.90;99.90
20680;DHT22;10499;47.494;7.608;2022-12-18T05:18:54;-5.90;99.90
20680;DHT22;10499;47.494;7.608;2022-12-18T05:21:19;-5.90;99.90
20680;DHT22;10499;47.494;7.608;2022-12-18T05:23:45;-5.90;99.90
20680;DHT22;10499;47.494;7.608;2022-12-18T05:26:16;-6.00;99.90
20680;DHT22;10499;47.494;7.608;2022-12-18T05:28:42;-6.00;99.90
20680;DHT22;10499;47.494;7.608;2022-12-18T05:31:08;-6.00;99.90
20680;DHT22;10499;47.494;7.608;2022-12-18T05:33:34;-6.00;99.90
20680;DHT22;10499;47.494;7.608;2022-12-18T05:36:02;-6.00;99.90
20680;DHT22;10499;47.494;7.608;2022-12-18T05:38:30;-6.00;99.90
20680;DHT22;10499;47.494;7.608;2022-12-18T05:40:57;-6.00;99.90
20680;DHT22;10499;47.494;7.608;2022-12-18T05:43:24;-6.00;99.90
20680;DHT22;10499;47.494;7.608;2022-12-18T05:45:50;-6.00;99.90
20680;DHT22;10499;47.494;7.608;2022-12-18T05:48:16;-6.00;99.90
20680;DHT22;10499;47.494;7.608;2022-12-18T05:50:45;-6.00;99.90
20680;DHT22;10499;47.494;7.608;2022-12-18T05:53:11;-6.00;99.90
20680;DHT22;10499;47.494;7.608;2022-12-18T05:55:39;-6.10;99.90
20680;DHT22;10499;47.494;7.608;2022-12-18T05:58:07;-6.00;99.90
20680;DHT22;10499;47.494;7.608;2022-12-18T06:00:36;-6.10;99.90
20680;DHT22;10499;47.494;7.608;2022-12-18T06:03:06;-6.10;99.90
20680;DHT22;10499;47.494;7.608;2022-12-18T06:05:36;-6.10;99.90
20680;DHT22;10499;47.494;7.608;2022-12-18T06:08:02;-6.20;99.90
20680;DHT22;10499;47.494;7.608;2022-12-18T06:10:28;-6.20;99.90
20680;DHT22;10499;47.494;7.608;2022-12-18T06:12:54;-6.20;99.90
20680;DHT22;10499;47.494;7.608;2022-12-18T06:15:19;-6.20;99.90
20680;DHT22;10499;47.494;7.608;2022-12-18T06:17:45;-6.20;99.90
20680;DHT22;10499;47.494;7.608;2022-12-18T06:20:10;-6.20;99.90
20680;DHT22;10499;47.494;7.608;2022-12-18T06:22:36;-6.20;99.90
20680;DHT22;10499;47.494;7.608;2022-12-18T06:25:02;-6.20;99.90
20680;DHT22;10499;47.494;7.608;2022-12-18T06:27:27;-6.20;99.90
20680;DHT22;10499;47.494;7.608;2022-12-18T06:29:53;-6.30;99.90
20680;DHT22;10499;47.494;7.608;2022-12-18T06:32:19;-6.30;99.90
20680;DHT22;10499;47.494;7.608;2022-12-18T06:34:44;-6.30;99.90
20680;DHT22;10499;47.494;7.608;2022-12-18T06:37:10;-6.30;99.90
20680;DHT22;10499;47.494;7.608;2022-12-18T06:39:35;-6.30;99.90
20680;DHT22;10499;47.494;7.608;2022-12-18T06:42:01;-6.40;99.90
20680;DHT22;10499;47.494;7.608;2022-12-18T06:44:27;-6.40;99.90
20680;DHT22;10499;47.494;7.608;2022-12-18T06:46:52;-6.40;99.90
20680;DHT22;10499;47.494;7.608;2022-12-18T06:49:18;-6.30;99.90
20680;DHT22;10499;47.494;7.608;2022-12-18T06:51:43;-6.40;99.90
20680;DHT22;10499;47.494;7.608;2022-12-18T06:54:09;-6.30;99.90
20680;DHT22;10499;47.494;7.608;2022-12-18T06:56:35;-6.40;99.90
20680;DHT22;10499;47.494;7.608;2022-12-18T06:59:00;-6.30;99.90
20680;DHT22;10499;47.494;7.608;2022-12-18T07:01:26;-6.30;99.90
20680;DHT22;10499;47.494;7.608;2022-12-18T07:03:56;-6.30;99.90
20680;DHT22;10499;47.494;7.608;2022-12-18T07:06:24;-6.40;99.90
20680;DHT22;10499;47.494;7.608;2022-12-18T07:08:52;-6.40;99.90
20680;DHT22;10499;47.494;7.608;2022-12-18T07:11:18;-6.30;99.90
20680;DHT22;10499;47.494;7.608;2022-12-18T07:13:45;-6.40;99.90
20680;DHT22;10499;47.494;7.608;2022-12-18T07:16:14;-6.40;99.90
20680;DHT22;10499;47.494;7.608;2022-12-18T07:18:40;-6.30;99.90
20680;DHT22;10499;47.494;7.608;2022-12-18T07:21:08;-6.30;99.90
20680;DHT22;10499;47.494;7.608;2022-12-18T07:23:35;-6.30;99.90
20680;DHT22;10499;47.494;7.608;2022-12-18T07:26:09;-6.30;99.90
20680;DHT22;10499;47.494;7.608;2022-12-18T07:28:36;-6.30;99.90
20680;DHT22;10499;47.494;7.608;2022-12-18T07:31:06;-6.30;99.90
20680;DHT22;10499;47.494;7.608;2022-12-18T07:33:33;-6.30;99.90
20680;DHT22;10499;47.494;7.608;2022-12-18T07:36:02;-6.20;99.90
20680;DHT22;10499;47.494;7.608;2022-12-18T07:38:29;-6.20;99.90
20680;DHT22;10499;47.494;7.608;2022-12-18T07:41:00;-6.20;99.90
20680;DHT22;10499;47.494;7.608;2022-12-18T07:43:26;-6.20;99.90
20680;DHT22;10499;47.494;7.608;2022-12-18T07:45:51;-6.20;99.90
20680;DHT22;10499;47.494;7.608;2022-12-18T07:48:17;-6.20;99.90
20680;DHT22;10499;47.494;7.608;2022-12-18T07:50:42;-6.10;99.90
20680;DHT22;10499;47.494;7.608;2022-12-18T07:53:08;-6.10;99.90
20680;DHT22;10499;47.494;7.608;2022-12-18T07:55:34;-6.10;99.90
20680;DHT22;10499;47.494;7.608;2022-12-18T07:58:04;-6.00;99.90
20680;DHT22;10499;47.494;7.608;2022-12-18T08:00:30;-5.90;99.90
20680;DHT22;10499;47.494;7.608;2022-12-18T08:02:56;-5.80;99.90
20680;DHT22;10499;47.494;7.608;2022-12-18T08:05:22;-5.70;99.90
20680;DHT22;10499;47.494;7.608;2022-12-18T08:07:48;-5.60;99.90
20680;DHT22;10499;47.494;7.608;2022-12-18T08:10:14;-5.10;99.90
20680;DHT22;10499;47.494;7.608;2022-12-18T08:12:40;-3.50;99.90
20680;DHT22;10499;47.494;7.608;2022-12-18T08:17:32;-1.10;99.90
20680;DHT22;10499;47.494;7.608;2022-12-18T08:19:57;-0.50;98.00
20680;DHT22;10499;47.494;7.608;2022-12-18T08:22:23;0.00;95.60
20680;DHT22;10499;47.494;7.608;2022-12-18T08:24:49;0.60;93.70
20680;DHT22;10499;47.494;7.608;2022-12-18T08:27:14;1.40;91.60
20680;DHT22;10499;47.494;7.608;2022-12-18T08:29:40;1.90;89.20
20680;DHT22;10499;47.494;7.608;2022-12-18T08:32:05;2.50;86.40
20680;DHT22;10499;47.494;7.608;2022-12-18T08:34:31;2.70;84.40
20680;DHT22;10499;47.494;7.608;2022-12-18T08:36:57;3.20;83.20
20680;DHT22;10499;47.494;7.608;2022-12-18T08:39:22;3.60;80.00
20680;DHT22;10499;47.494;7.608;2022-12-18T08:41:48;4.50;77.80
20680;DHT22;10499;47.494;7.608;2022-12-18T08:44:34;5.30;74.10
20680;DHT22;10499;47.494;7.608;2022-12-18T08:47:07;6.10;70.10
20680;DHT22;10499;47.494;7.608;2022-12-18T08:49:34;6.60;67.80
20680;DHT22;10499;47.494;7.608;2022-12-18T08:52:00;7.00;66.50
20680;DHT22;10499;47.494;7.608;2022-12-18T08:54:26;7.00;65.50
20680;DHT22;10499;47.494;7.608;2022-12-18T08:56:52;7.10;65.50
20680;DHT22;10499;47.494;7.608;2022-12-18T08:59:18;6.90;65.20
20680;DHT22;10499;47.494;7.608;2022-12-18T09:01:44;6.60;66.30
20680;DHT22;10499;47.494;7.608;2022-12-18T09:04:10;7.10;65.10
20680;DHT22;10499;47.494;7.608;2022-12-18T09:06:36;7.60;63.60
20680;DHT22;10499;47.494;7.608;2022-12-18T09:09:04;7.20;64.00
20680;DHT22;10499;47.494;7.608;2022-12-18T09:11:31;8.80;61.70
20680;DHT22;10499;47.494;7.608;2022-12-18T09:13:58;9.40;58.40
20680;DHT22;10499;47.494;7.608;2022-12-18T09:16:25;10.20;56.80
20680;DHT22;10499;47.494;7.608;2022-12-18T09:18:50;11.00;55.20
20680;DHT22;10499;47.494;7.608;2022-12-18T09:21:18;10.80;54.50
20680;DHT22;10499;47.494;7.608;2022-12-18T09:23:49;10.80;54.60
20680;DHT22;10499;47.494;7.608;2022-12-18T09:26:15;10.70;54.00
20680;DHT22;10499;47.494;7.608;2022-12-18T09:28:41;9.90;55.30
20680;DHT22;10499;47.494;7.608;2022-12-18T09:31:08;9.90;56.00
20680;DHT22;10499;47.494;7.608;2022-12-18T09:33:36;11.00;55.00
20680;DHT22;10499;47.494;7.608;2022-12-18T09:36:05;12.40;51.50
20680;DHT22;10499;47.494;7.608;2022-12-18T09:38:31;13.00;49.30
20680;DHT22;10499;47.494;7.608;2022-12-18T09:43:48;13.70;48.20
20680;DHT22;10499;47.494;7.608;2022-12-18T09:46:23;13.90;46.80
20680;DHT22;10499;47.494;7.608;2022-12-18T09:48:52;13.60;46.70
20680;DHT22;10499;47.494;7.608;2022-12-18T09:51:32;12.90;46.70
20680;DHT22;10499;47.494;7.608;2022-12-18T09:54:02;13.10;48.00
20680;DHT22;10499;47.494;7.608;2022-12-18T09:56:34;14.80;46.50
20680;DHT22;10499;47.494;7.608;2022-12-18T09:59:02;15.70;44.80
20680;DHT22;10499;47.494;7.608;2022-12-18T10:01:29;16.40;43.20
20680;DHT22;10499;47.494;7.608;2022-12-18T10:03:55;17.20;41.80
20680;DHT22;10499;47.494;7.608;2022-12-18T10:06:29;17.70;40.80
20680;DHT22;10499;47.494;7.608;2022-12-18T10:09:09;17.90;40.60
20680;DHT22;10499;47.494;7.608;2022-12-18T10:14:43;18.20;39.50
20680;DHT22;10499;47.494;7.608;2022-12-18T10:17:48;17.90;39.10
20680;DHT22;10499;47.494;7.608;2022-12-18T10:20:44;18.30;38.60
20680;DHT22;10499;47.494;7.608;2022-12-18T10:26:09;18.90;37.80
20680;DHT22;10499;47.494;7.608;2022-12-18T10:28:37;18.70;37.90
20680;DHT22;10499;47.494;7.608;2022-12-18T10:31:24;17.00;39.40
20680;DHT22;10499;47.494;7.608;2022-12-18T10:33:51;15.80;42.80
20680;DHT22;10499;47.494;7.608;2022-12-18T10:36:16;15.20;44.50
20680;DHT22;10499;47.494;7.608;2022-12-18T10:38:42;14.60;44.30
20680;DHT22;10499;47.494;7.608;2022-12-18T10:43:42;17.30;41.30
20680;DHT22;10499;47.494;7.608;2022-12-18T10:48:39;19.90;38.30
20680;DHT22;10499;47.494;7.608;2022-12-18T10:51:06;19.40;37.70
20680;DHT22;10499;47.494;7.608;2022-12-18T10:53:34;19.30;38.00
20680;DHT22;10499;47.494;7.608;2022-12-18T10:56:04;18.80;38.50
20680;DHT22;10499;47.494;7.608;2022-12-18T10:58:35;18.50;38.60
20680;DHT22;10499;47.494;7.608;2022-12-18T11:01:12;18.00;40.10
20680;DHT22;10499;47.494;7.608;2022-12-18T11:03:42;17.70;40.80
20680;DHT22;10499;47.494;7.608;2022-12-18T11:08:39;17.20;41.90
20680;DHT22;10499;47.494;7.608;2022-12-18T11:11:19;16.60;42.90
20680;DHT22;10499;47.494;7.608;2022-12-18T11:14:04;16.20;43.80
20680;DHT22;10499;47.494;7.608;2022-12-18T11:16:34;15.70;44.70
20680;DHT22;10499;47.494;7.608;2022-12-18T11:19:34;15.10;45.00
20680;DHT22;10499;47.494;7.608;2022-12-18T11:24:53;13.00;49.10
20680;DHT22;10499;47.494;7.608;2022-12-18T11:27:19;11.30;52.50
20680;DHT22;10499;47.494;7.608;2022-12-18T11:29:45;11.30;55.00
20680;DHT22;10499;47.494;7.608;2022-12-18T11:32:34;11.70;55.30
20680;DHT22;10499;47.494;7.608;2022-12-18T11:38:26;15.10;49.20
20680;DHT22;10499;47.494;7.608;2022-12-18T11:41:14;15.90;46.40
20680;DHT22;10499;47.494;7.608;2022-12-18T11:46:55;16.60;44.80
20680;DHT22;10499;47.494;7.608;2022-12-18T11:49:30;16.40;44.90
20680;DHT22;10499;47.494;7.608;2022-12-18T11:52:15;16.30;44.40
20680;DHT22;10499;47.494;7.608;2022-12-18T11:54:42;16.60;45.20
20680;DHT22;10499;47.494;7.608;2022-12-18T12:00:18;16.80;45.10
20680;DHT22;10499;47.494;7.608;2022-12-18T12:08:54;14.70;49.40
20680;DHT22;10499;47.494;7.608;2022-12-18T12:17:04;14.70;50.30
20680;DHT22;10499;47.494;7.608;2022-12-18T12:19:49;14.80;49.90
20680;DHT22;10499;47.494;7.608;2022-12-18T12:28:19;13.20;53.00
20680;DHT22;10499;47.494;7.608;2022-12-18T12:31:01;13.20;54.00
20680;DHT22;10499;47.494;7.608;2022-12-18T12:33:36;12.90;54.50
20680;DHT22;10499;47.494;7.608;2022-12-18T12:36:31;12.40;55.70
20680;DHT22;10499;47.494;7.608;2022-12-18T12:39:14;11.30;58.20
20680;DHT22;10499;47.494;7.608;2022-12-18T12:41:44;10.80;60.00
20680;DHT22;10499;47.494;7.608;2022-12-18T12:44:51;10.50;61.90
20680;DHT22;10499;47.494;7.608;2022-12-18T12:47:34;10.60;61.60
20680;DHT22;10499;47.494;7.608;2022-12-18T12:50:05;10.20;62.30
20680;DHT22;10499;47.494;7.608;2022-12-18T12:52:39;9.90;64.20
20680;DHT22;10499;47.494;7.608;2022-12-18T12:55:16;9.80;64.40
20680;DHT22;10499;47.494;7.608;2022-12-18T12:57:54;9.80;64.10
20680;DHT22;10499;47.494;7.608;2022-12-18T13:00:21;9.90;64.20
20680;DHT22;10499;47.494;7.608;2022-12-18T13:03:03;9.90;64.00
20680;DHT22;10499;47.494;7.608;2022-12-18T13:05:34;9.60;65.30
20680;DHT22;10499;47.494;7.608;2022-12-18T13:08:06;9.50;66.00
20680;DHT22;10499;47.494;7.608;2022-12-18T13:10:40;9.70;65.80
20680;DHT22;10499;47.494;7.608;2022-12-18T13:13:09;9.40;66.20
20680;DHT22;10499;47.494;7.608;2022-12-18T13:15:43;9.30;66.90
20680;DHT22;10499;47.494;7.608;2022-12-18T13:20:39;8.70;69.60
20680;DHT22;10499;47.494;7.608;2022-12-18T13:23:38;8.80;70.30
20680;DHT22;10499;47.494;7.608;2022-12-18T13:31:02;8.70;69.70
20680;DHT22;10499;47.494;7.608;2022-12-18T13:38:35;9.00;69.60
20680;DHT22;10499;47.494;7.608;2022-12-18T13:41:02;8.90;70.20
20680;DHT22;10499;47.494;7.608;2022-12-18T13:43:54;8.50;70.70
20680;DHT22;10499;47.494;7.608;2022-12-18T13:46:28;8.10;73.20
20680;DHT22;10499;47.494;7.608;2022-12-18T13:49:05;8.10;74.50
20680;DHT22;10499;47.494;7.608;2022-12-18T13:51:33;7.60;75.80
20680;DHT22;10499;47.494;7.608;2022-12-18T13:57:01;7.20;77.80
20680;DHT22;10499;47.494;7.608;2022-12-18T13:59:34;7.10;78.60
20680;DHT22;10499;47.494;7.608;2022-12-18T14:02:12;6.70;79.80
20680;DHT22;10499;47.494;7.608;2022-12-18T14:04:39;7.30;79.30
20680;DHT22;10499;47.494;7.608;2022-12-18T14:07:07;7.80;77.10
20680;DHT22;10499;47.494;7.608;2022-12-18T14:09:39;8.00;76.20
20680;DHT22;10499;47.494;7.608;2022-12-18T14:12:20;8.30;75.20
20680;DHT22;10499;47.494;7.608;2022-12-18T14:15:09;8.20;75.40
20680;DHT22;10499;47.494;7.608;2022-12-18T14:17:42;7.50;77.20
20680;DHT22;10499;47.494;7.608;2022-12-18T14:20:14;7.70;78.60
20680;DHT22;10499;47.494;7.608;2022-12-18T14:22:43;7.00;79.20
20680;DHT22;10499;47.494;7.608;2022-12-18T14:25:24;7.40;79.40
20680;DHT22;10499;47.494;7.608;2022-12-18T14:30:36;7.80;77.80
20680;DHT22;10499;47.494;7.608;2022-12-18T14:35:31;7.30;77.90
20680;DHT22;10499;47.494;7.608;2022-12-18T14:38:18;7.60;77.90
20680;DHT22;10499;47.494;7.608;2022-12-18T14:40:44;7.20;78.60
20680;DHT22;10499;47.494;7.608;2022-12-18T14:43:10;7.30;78.80
20680;DHT22;10499;47.494;7.608;2022-12-18T14:45:38;7.00;80.10
20680;DHT22;10499;47.494;7.608;2022-12-18T14:48:40;6.80;80.90
20680;DHT22;10499;47.494;7.608;2022-12-18T14:53:42;6.70;82.00
20680;DHT22;10499;47.494;7.608;2022-12-18T14:56:17;6.60;83.00
20680;DHT22;10499;47.494;7.608;2022-12-18T14:58:50;6.40;83.60
20680;DHT22;10499;47.494;7.608;2022-12-18T15:03:52;5.70;90.00
20680;DHT22;10499;47.494;7.608;2022-12-18T15:08:56;5.00;98.20
20680;DHT22;10499;47.494;7.608;2022-12-18T15:14:41;4.70;99.90
20680;DHT22;10499;47.494;7.608;2022-12-18T15:17:21;4.60;99.90
20680;DHT22;10499;47.494;7.608;2022-12-18T15:19:50;4.40;99.90
20680;DHT22;10499;47.494;7.608;2022-12-18T15:22:25;4.30;99.90
20680;DHT22;10499;47.494;7.608;2022-12-18T15:24:52;4.10;99.90
20680;DHT22;10499;47.494;7.608;2022-12-18T15:27:25;3.90;99.90
20680;DHT22;10499;47.494;7.608;2022-12-18T15:32:33;3.60;99.90
20680;DHT22;10499;47.494;7.608;2022-12-18T15:37:36;3.70;99.90
20680;DHT22;10499;47.494;7.608;2022-12-18T15:40:06;3.50;99.90
20680;DHT22;10499;47.494;7.608;2022-12-18T15:42:32;3.40;99.90
20680;DHT22;10499;47.494;7.608;2022-12-18T15:45:17;3.30;99.90
20680;DHT22;10499;47.494;7.608;2022-12-18T15:47:43;3.10;99.90
20680;DHT22;10499;47.494;7.608;2022-12-18T15:50:10;3.10;99.90
20680;DHT22;10499;47.494;7.608;2022-12-18T15:52:44;2.90;99.90
20680;DHT22;10499;47.494;7.608;2022-12-18T15:55:18;2.60;99.90
20680;DHT22;10499;47.494;7.608;2022-12-18T15:58:03;2.60;99.90
20680;DHT22;10499;47.494;7.608;2022-12-18T16:00:29;2.70;99.90
20680;DHT22;10499;47.494;7.608;2022-12-18T16:02:55;2.80;99.90
20680;DHT22;10499;47.494;7.608;2022-12-18T16:05:24;2.60;99.90
20680;DHT22;10499;47.494;7.608;2022-12-18T16:07:51;2.50;99.90
20680;DHT22;10499;47.494;7.608;2022-12-18T16:10:17;2.50;99.90
20680;DHT22;10499;47.494;7.608;2022-12-18T16:12:43;2.30;99.90
20680;DHT22;10499;47.494;7.608;2022-12-18T16:15:11;2.50;99.90
20680;DHT22;10499;47.494;7.608;2022-12-18T16:17:46;2.60;99.90
20680;DHT22;10499;47.494;7.608;2022-12-18T16:20:16;2.70;99.90
20680;DHT22;10499;47.494;7.608;2022-12-18T16:22:43;2.80;99.90
20680;DHT22;10499;47.494;7.608;2022-12-18T16:25:25;2.60;99.90
20680;DHT22;10499;47.494;7.608;2022-12-18T16:27:51;2.50;99.90
20680;DHT22;10499;47.494;7.608;2022-12-18T16:30:21;2.30;99.90
20680;DHT22;10499;47.494;7.608;2022-12-18T16:32:47;2.20;99.90
20680;DHT22;10499;47.494;7.608;2022-12-18T16:35:14;2.20;99.90
20680;DHT22;10499;47.494;7.608;2022-12-18T16:37:41;2.30;99.90
20680;DHT22;10499;47.494;7.608;2022-12-18T16:40:09;2.40;99.90
20680;DHT22;10499;47.494;7.608;2022-12-18T16:42:36;2.50;99.90
20680;DHT22;10499;47.494;7.608;2022-12-18T16:45:03;2.60;99.90
20680;DHT22;10499;47.494;7.608;2022-12-18T16:47:29;2.40;99.90
20680;DHT22;10499;47.494;7.608;2022-12-18T16:49:54;2.40;99.90
20680;DHT22;10499;47.494;7.608;2022-12-18T16:52:21;2.10;99.90
20680;DHT22;10499;47.494;7.608;2022-12-18T16:54:47;2.10;99.90
20680;DHT22;10499;47.494;7.608;2022-12-18T16:57:15;2.00;99.90
20680;DHT22;10499;47.494;7.608;2022-12-18T16:59:41;2.00;99.90
20680;DHT22;10499;47.494;7.608;2022-12-18T17:02:21;2.00;99.90
20680;DHT22;10499;47.494;7.608;2022-12-18T17:04:48;2.10;99.90
20680;DHT22;10499;47.494;7.608;2022-12-18T17:07:15;2.00;99.90
20680;DHT22;10499;47.494;7.608;2022-12-18T17:09:41;2.00;99.90
20680;DHT22;10499;47.494;7.608;2022-12-18T17:12:07;2.00;99.90
20680;DHT22;10499;47.494;7.608;2022-12-18T17:14:33;2.00;99.90
20680;DHT22;10499;47.494;7.608;2022-12-18T17:16:59;2.00;99.90
20680;DHT22;10499;47.494;7.608;2022-12-18T17:19:26;2.10;99.90
20680;DHT22;10499;47.494;7.608;2022-12-18T17:22:07;2.20;99.90
20680;DHT22;10499;47.494;7.608;2022-12-18T17:24:34;2.30;99.90
20680;DHT22;10499;47.494;7.608;2022-12-18T17:26:59;2.20;99.90
20680;DHT22;10499;47.494;7.608;2022-12-18T17:29:25;2.10;99.90
20680;DHT22;10499;47.494;7.608;2022-12-18T17:31:51;2.20;99.90
20680;DHT22;10499;47.494;7.608;2022-12-18T17:34:16;2.20;99.90
20680;DHT22;10499;47.494;7.608;2022-12-18T17:36:42;2.20;99.90
20680;DHT22;10499;47.494;7.608;2022-12-18T17:39:15;1.90;99.90
20680;DHT22;10499;47.494;7.608;2022-12-18T17:41:42;1.90;99.90
20680;DHT22;10499;47.494;7.608;2022-12-18T17:44:08;1.90;99.90